Time;durP1;ratioP1;P1;durP2;ratioP2;P2;SDS_P1;SDS_P2;PMS_P1;PMS_P2;Temp;Humidity;BMP_temperature;BMP_pressure;BME280_temperature;BME280_humidity;BME280_pressure;Samples;Min_cycle;Max_cycle;Signal;HPM_P1;HPM_P2
2022/12/06 00:00:55;;;;;;;17.58;9.13;;;5.20;99.90;;;;;;4979418;28;90001;-33
2022/12/06 00:03:20;;;;;;;11.13;8.27;;;5.20;99.90;;;;;;4979189;28;89171;-31
2022/12/06 00:05:46;;;;;;;12.80;6.43;;;5.10;99.90;;;;;;4979533;28;89380;-32
2022/12/06 00:08:12;;;;;;;15.90;7.22;;;5.10;99.90;;;;;;4979703;28;90276;-30
2022/12/06 00:10:37;;;;;;;8.02;6.97;;;5.10;99.90;;;;;;4979374;28;89738;-32
2022/12/06 00:13:04;;;;;;;8.07;7.07;;;5.20;99.90;;;;;;4979558;28;89526;-33
2022/12/06 00:15:33;;;;;;;12.52;5.43;;;5.20;99.90;;;;;;4978477;28;90688;-34
2022/12/06 00:17:59;;;;;;;12.07;5.78;;;5.20;99.90;;;;;;4979251;28;90150;-33
2022/12/06 00:20:24;;;;;;;11.95;6.93;;;5.10;99.90;;;;;;4979165;28;89738;-32
2022/12/06 00:22:50;;;;;;;11.60;7.10;;;5.10;99.90;;;;;;4979069;28;89175;-34
2022/12/06 00:25:16;;;;;;;13.40;6.97;;;5.10;99.90;;;;;;4980070;28;88310;-29
2022/12/06 00:27:41;;;;;;;12.10;6.53;;;5.10;99.90;;;;;;4978404;28;90517;-32
2022/12/06 00:30:07;;;;;;;13.07;8.00;;;5.10;99.90;;;;;;4979018;28;89565;-31
2022/12/06 00:32:33;;;;;;;10.25;6.45;;;5.10;99.90;;;;;;4978696;28;91302;-32
2022/12/06 00:34:59;;;;;;;13.57;6.65;;;5.10;99.90;;;;;;4978288;28;88856;-32
2022/12/06 00:37:24;;;;;;;16.38;6.65;;;5.20;99.90;;;;;;4978854;28;90700;-30
2022/12/06 00:39:50;;;;;;;7.80;5.47;;;5.10;99.90;;;;;;4977898;28;90782;-31
2022/12/06 00:42:15;;;;;;;6.72;5.72;;;5.20;99.90;;;;;;4979565;28;90275;-31
2022/12/06 00:44:41;;;;;;;11.95;6.43;;;5.20;99.90;;;;;;4978515;28;89685;-34
2022/12/06 00:47:07;;;;;;;9.85;6.03;;;5.10;99.90;;;;;;4981362;28;89707;-30
2022/12/06 00:49:32;;;;;;;16.80;6.03;;;5.10;99.90;;;;;;4982418;28;90635;-32
2022/12/06 00:51:58;;;;;;;9.80;6.18;;;5.20;99.90;;;;;;4981849;28;89669;-31
2022/12/06 00:54:23;;;;;;;13.07;5.65;;;5.10;99.90;;;;;;4983415;28;88879;-35
2022/12/06 00:56:49;;;;;;;9.20;6.03;;;5.10;99.90;;;;;;4980295;28;89020;-31
2022/12/06 00:59:15;;;;;;;7.60;4.88;;;5.10;99.90;;;;;;4983332;28;89729;-32
2022/12/06 01:01:41;;;;;;;8.60;4.90;;;5.10;99.90;;;;;;4981749;28;89649;-32
2022/12/06 01:04:08;;;;;;;12.05;5.25;;;5.10;99.90;;;;;;4980701;28;88468;-33
2022/12/06 01:06:35;;;;;;;15.40;5.55;;;5.10;99.90;;;;;;4982162;28;90137;-30
2022/12/06 01:09:05;;;;;;;10.60;5.37;;;5.10;99.90;;;;;;4982266;28;91188;-32
2022/12/06 01:11:31;;;;;;;7.93;5.20;;;5.10;99.90;;;;;;4981758;28;88606;-33
2022/12/06 01:13:57;;;;;;;12.05;6.07;;;5.10;99.90;;;;;;4982570;28;89476;-30
2022/12/06 01:16:28;;;;;;;14.35;5.38;;;5.00;99.90;;;;;;4982122;28;90195;-30
2022/12/06 01:19:04;;;;;;;5.65;4.95;;;5.00;99.90;;;;;;4982513;28;89795;-31
2022/12/06 01:21:30;;;;;;;7.40;5.50;;;4.90;99.90;;;;;;4981642;28;88968;-32
2022/12/06 01:23:56;;;;;;;7.97;6.03;;;5.00;99.90;;;;;;4981914;28;88776;-32
2022/12/06 01:26:25;;;;;;;14.02;6.90;;;4.90;99.90;;;;;;4982364;28;90376;-31
2022/12/06 01:28:51;;;;;;;;;;;4.90;99.90;;;;;;4981959;28;90217;-34
2022/12/06 01:31:16;;;;;;;11.07;6.65;;;4.90;99.90;;;;;;4982959;28;89811;-30
2022/12/06 01:33:43;;;;;;;11.25;5.47;;;4.90;99.90;;;;;;4982832;28;89257;-31
2022/12/06 01:36:24;;;;;;;11.45;6.22;;;4.90;99.90;;;;;;4981929;28;90821;-32
2022/12/06 01:38:54;;;;;;;8.13;5.78;;;4.90;99.90;;;;;;4982436;28;89682;-29
2022/12/06 01:41:21;;;;;;;14.02;6.90;;;4.90;99.90;;;;;;4982143;28;89982;-31
2022/12/06 01:43:47;;;;;;;10.50;6.97;;;4.90;99.90;;;;;;4982325;28;90478;-31
2022/12/06 01:46:22;;;;;;;17.08;7.93;;;4.90;99.90;;;;;;4981563;28;89156;-32
2022/12/06 01:48:52;;;;;;;12.88;7.03;;;4.90;99.90;;;;;;4982241;28;88898;-31
2022/12/06 01:51:18;;;;;;;10.95;6.50;;;4.90;99.90;;;;;;4981962;28;89959;-31
2022/12/06 01:53:46;;;;;;;11.82;7.07;;;4.90;99.90;;;;;;4980108;28;89132;-33
2022/12/06 01:56:12;;;;;;;8.77;6.70;;;4.90;99.90;;;;;;4981045;28;89322;-30
2022/12/06 01:58:40;;;;;;;12.18;7.20;;;4.90;99.90;;;;;;4981659;28;89896;-31
2022/12/06 02:01:08;;;;;;;6.97;6.13;;;4.90;99.90;;;;;;4981579;28;89442;-32
2022/12/06 02:03:34;;;;;;;13.80;6.45;;;5.00;99.90;;;;;;4981488;28;88820;-33
2022/12/06 02:06:03;;;;;;;8.73;6.20;;;4.90;99.90;;;;;;4981228;28;90521;-31
2022/12/06 02:08:29;;;;;;;9.75;6.22;;;4.90;99.90;;;;;;4980867;28;89460;-33
2022/12/06 02:10:55;;;;;;;11.45;6.00;;;5.00;99.90;;;;;;4981742;28;89733;-30
2022/12/06 02:13:21;;;;;;;7.22;4.78;;;5.00;99.90;;;;;;4981351;28;88648;-31
2022/12/06 02:16:05;;;;;;;7.43;5.32;;;5.00;99.90;;;;;;4981146;28;89070;-31
2022/12/06 02:18:43;;;;;;;9.63;5.50;;;5.00;99.90;;;;;;4977524;28;90662;-33
2022/12/06 02:21:46;;;;;;;6.70;4.40;;;5.00;99.90;;;;;;4980231;28;89737;-33
2022/12/06 02:24:46;;;;;;;17.52;5.50;;;5.00;99.90;;;;;;4981927;28;88095;-30
2022/12/06 02:27:30;;;;;;;14.52;6.32;;;5.00;99.90;;;;;;4970898;28;88911;-33
2022/12/06 02:30:07;;;;;;;14.93;6.25;;;5.00;99.90;;;;;;4979834;28;91517;-30
2022/12/06 02:32:41;;;;;;;6.72;5.40;;;4.90;99.90;;;;;;4980577;28;89008;-32
2022/12/06 02:35:33;;;;;;;12.88;5.97;;;5.00;99.90;;;;;;4976233;28;88096;-32
2022/12/06 02:38:29;;;;;;;17.08;6.13;;;4.90;99.90;;;;;;4975957;28;90384;-29
2022/12/06 02:41:00;;;;;;;11.18;6.07;;;4.90;99.90;;;;;;4960547;28;89211;-33
2022/12/06 02:43:34;;;;;;;7.40;5.32;;;4.90;99.90;;;;;;4980134;28;90391;-31
2022/12/06 02:46:03;;;;;;;11.27;5.60;;;4.90;99.90;;;;;;4980961;28;88999;-31
2022/12/06 02:48:30;;;;;;;;;;;4.90;99.90;;;;;;4981477;28;90500;-31
2022/12/06 02:51:06;;;;;;;11.02;4.68;;;4.90;99.90;;;;;;4981893;28;89701;-30
2022/12/06 02:53:34;;;;;;;8.23;5.88;;;4.90;99.90;;;;;;4966818;28;89040;-31
2022/12/06 02:56:00;;;;;;;13.38;4.93;;;4.90;99.90;;;;;;4981222;28;88867;-30
2022/12/06 02:58:26;;;;;;;8.23;5.18;;;4.90;99.90;;;;;;4980200;28;88746;-31
2022/12/06 03:00:58;;;;;;;8.63;5.15;;;4.90;99.90;;;;;;4980765;28;89540;-32
2022/12/06 03:03:37;;;;;;;6.07;3.95;;;4.90;99.90;;;;;;4980096;28;89006;-33
2022/12/06 03:06:03;;;;;;;4.57;3.90;;;4.90;99.90;;;;;;4980578;28;89755;-31
2022/12/06 03:08:41;;;;;;;6.18;4.18;;;4.90;99.90;;;;;;4979701;28;90064;-32
2022/12/06 03:11:07;;;;;;;12.23;5.35;;;4.90;99.90;;;;;;4980324;28;90577;-32
2022/12/06 03:13:44;;;;;;;5.75;3.58;;;4.90;99.90;;;;;;4980912;28;90237;-33
2022/12/06 03:16:29;;;;;;;5.32;3.83;;;4.90;99.90;;;;;;4980049;28;88976;-32
2022/12/06 03:19:17;;;;;;;9.88;4.07;;;4.80;99.90;;;;;;4981032;28;89940;-31
2022/12/06 03:22:07;;;;;;;8.18;3.95;;;4.80;99.90;;;;;;4978755;28;89644;-31
2022/12/06 03:24:36;;;;;;;7.00;3.78;;;4.80;99.90;;;;;;4979694;28;89584;-31
2022/12/06 03:27:16;;;;;;;10.05;4.13;;;4.80;99.90;;;;;;4969887;28;88943;-31
2022/12/06 03:29:46;;;;;;;4.85;4.05;;;4.80;99.90;;;;;;4978655;28;89848;-33
2022/12/06 03:32:14;;;;;;;5.85;3.50;;;4.80;99.90;;;;;;4979684;28;89920;-30
2022/12/06 03:34:46;;;;;;;5.88;4.10;;;4.80;99.90;;;;;;4980166;28;89428;-31
2022/12/06 03:37:16;;;;;;;6.85;3.53;;;4.80;99.90;;;;;;4979863;28;90377;-30
2022/12/06 03:39:47;;;;;;;9.88;3.63;;;4.80;99.90;;;;;;4980098;28;90413;-32
2022/12/06 03:42:13;;;;;;;3.25;2.40;;;4.80;99.90;;;;;;4979799;28;90907;-33
2022/12/06 03:44:40;;;;;;;7.35;3.22;;;4.80;99.90;;;;;;4979501;28;89708;-33
2022/12/06 03:47:14;;;;;;;5.13;2.67;;;4.80;99.90;;;;;;4980128;28;88403;-31
2022/12/06 03:49:59;;;;;;;4.97;3.10;;;4.70;99.90;;;;;;4979640;28;90681;-32
2022/12/06 03:52:27;;;;;;;6.78;3.47;;;4.70;99.90;;;;;;4979758;28;89591;-33
2022/12/06 03:54:53;;;;;;;12.65;3.85;;;4.70;99.90;;;;;;4980439;28;89246;-29
2022/12/06 03:57:19;;;;;;;5.95;3.17;;;4.70;99.90;;;;;;4979675;28;89552;-31
2022/12/06 03:59:45;;;;;;;4.47;3.30;;;4.70;99.90;;;;;;4979793;28;90514;-31
2022/12/06 04:02:10;;;;;;;4.72;3.22;;;4.60;99.90;;;;;;4978338;28;90632;-30
2022/12/06 04:04:36;;;;;;;5.78;3.65;;;4.60;99.90;;;;;;4979699;28;90342;-31
2022/12/06 04:07:02;;;;;;;5.50;2.90;;;4.60;99.90;;;;;;4979585;28;89100;-32
2022/12/06 04:14:56;;;;;;;7.93;2.70;;;4.70;99.90;;;;;;4979571;28;89456;-33
2022/12/06 04:20:06;;;;;;;2.97;2.47;;;4.60;99.90;;;;;;4980082;28;89009;-32
2022/12/06 04:25:16;;;;;;;2.60;2.38;;;4.70;99.90;;;;;;4980151;28;89335;-33
2022/12/06 04:38:43;;;;;;;3.67;3.00;;;4.70;99.90;;;;;;4979751;28;87878;-31
2022/12/06 04:43:40;;;;;;;3.05;2.50;;;4.70;99.90;;;;;;4979098;28;89778;-31
2022/12/06 04:43:58;;;;;;;4.60;3.13;;;4.70;99.90;;;;;;4979832;28;90258;-30
2022/12/06 04:46:24;;;;;;;3.08;2.85;;;4.70;99.90;;;;;;4978483;28;89216;-32
2022/12/06 04:48:49;;;;;;;3.90;2.97;;;4.70;99.90;;;;;;4980101;28;90149;-30
2022/12/06 04:51:15;;;;;;;7.05;2.50;;;4.70;99.90;;;;;;4978957;28;90284;-31
2022/12/06 04:53:41;;;;;;;2.83;2.63;;;4.60;99.90;;;;;;4978408;28;90571;-33
2022/12/06 04:56:07;;;;;;;3.70;2.95;;;4.60;99.90;;;;;;4978632;28;90239;-30
2022/12/06 04:58:33;;;;;;;4.05;3.08;;;4.60;99.90;;;;;;4978726;28;89097;-32
2022/12/06 05:00:59;;;;;;;7.45;3.40;;;4.60;99.90;;;;;;4979627;28;89646;-30
2022/12/06 05:03:24;;;;;;;4.18;2.40;;;4.50;99.90;;;;;;4978400;28;90721;-32
2022/12/06 05:05:50;;;;;;;7.32;3.38;;;4.50;99.90;;;;;;4979172;28;89479;-31
2022/12/06 05:08:16;;;;;;;4.43;2.72;;;4.50;99.90;;;;;;4979133;28;88374;-30
2022/12/06 05:10:46;;;;;;;2.75;2.47;;;4.50;99.90;;;;;;4978899;28;90192;-30
2022/12/06 05:13:11;;;;;;;5.55;2.72;;;4.40;99.90;;;;;;4978876;28;89686;-31
2022/12/06 05:15:37;;;;;;;2.55;2.35;;;4.40;99.90;;;;;;4978452;28;89203;-33
2022/12/06 05:18:03;;;;;;;3.58;3.00;;;4.40;99.90;;;;;;4978084;28;90100;-30
2022/12/06 05:20:28;;;;;;;3.45;2.80;;;4.30;99.90;;;;;;4978383;28;90065;-32
2022/12/06 05:22:54;;;;;;;4.00;3.25;;;4.30;99.90;;;;;;4979061;28;91139;-31
2022/12/06 05:25:20;;;;;;;7.03;3.15;;;4.30;99.90;;;;;;4978421;28;89018;-31
2022/12/06 05:27:46;;;;;;;10.60;3.08;;;4.30;99.90;;;;;;4965051;28;88041;-31
2022/12/06 05:30:12;;;;;;;3.08;2.88;;;4.30;99.90;;;;;;4978257;28;90486;-30
2022/12/06 05:32:38;;;;;;;4.22;3.33;;;4.20;99.90;;;;;;4979328;28;89780;-33
2022/12/06 05:35:05;;;;;;;9.43;3.80;;;4.20;99.90;;;;;;4982371;28;89824;-33
2022/12/06 05:37:31;;;;;;;5.13;3.30;;;4.20;99.90;;;;;;4982171;28;89776;-30
2022/12/06 05:39:57;;;;;;;4.57;3.38;;;4.20;99.90;;;;;;4982226;28;90156;-33
2022/12/06 05:42:22;;;;;;;7.00;3.10;;;4.20;99.90;;;;;;4980849;28;90860;-31
2022/12/06 05:44:48;;;;;;;7.05;3.10;;;4.20;99.90;;;;;;4981652;28;90190;-33
2022/12/06 05:47:13;;;;;;;7.25;3.53;;;4.30;99.90;;;;;;4982313;28;89686;-29
2022/12/06 05:49:39;;;;;;;5.93;3.53;;;4.30;99.90;;;;;;4981792;28;90108;-30
2022/12/06 05:52:04;;;;;;;8.32;3.00;;;4.30;99.90;;;;;;4982128;28;89801;-32
2022/12/06 05:54:30;;;;;;;7.28;3.72;;;4.30;99.90;;;;;;4980963;28;89406;-31
2022/12/06 05:56:56;;;;;;;9.50;3.25;;;4.30;99.90;;;;;;4981866;28;90266;-30
2022/12/06 05:59:21;;;;;;;5.05;3.17;;;4.30;99.90;;;;;;4981545;28;89727;-31
2022/12/06 06:01:47;;;;;;;3.97;3.60;;;4.30;99.90;;;;;;4981756;28;89753;-31
2022/12/06 06:04:12;;;;;;;4.47;3.33;;;4.30;99.90;;;;;;4982371;28;89090;-30
2022/12/06 06:06:38;;;;;;;9.45;3.85;;;4.30;99.90;;;;;;4980260;28;88616;-31
2022/12/06 06:09:03;;;;;;;3.25;2.80;;;4.30;99.90;;;;;;4981712;28;90064;-31
2022/12/06 06:11:29;;;;;;;4.38;3.15;;;4.30;99.90;;;;;;4981074;28;89452;-32
2022/12/06 06:13:54;;;;;;;4.60;4.03;;;4.30;99.90;;;;;;4981669;28;89375;-33
2022/12/06 06:16:21;;;;;;;4.70;2.97;;;4.30;99.90;;;;;;4981241;28;87953;-30
2022/12/06 06:18:46;;;;;;;7.00;3.92;;;4.30;99.90;;;;;;4980979;28;90493;-33
2022/12/06 06:21:12;;;;;;;5.03;3.85;;;4.20;99.90;;;;;;4981270;28;90119;-30
2022/12/06 06:23:38;;;;;;;8.68;3.70;;;4.20;99.90;;;;;;4980694;28;89373;-31
2022/12/06 06:26:08;;;;;;;5.97;2.95;;;4.20;99.90;;;;;;4979183;28;89066;-30
2022/12/06 06:28:34;;;;;;;5.57;3.42;;;4.20;99.90;;;;;;4977334;28;90871;-31
2022/12/06 06:31:04;;;;;;;9.80;4.75;;;4.20;99.90;;;;;;4980175;28;90496;-32
2022/12/06 06:33:31;;;;;;;6.20;3.35;;;4.20;99.90;;;;;;4981350;28;89894;-30
2022/12/06 06:35:56;;;;;;;3.45;2.85;;;4.20;99.90;;;;;;4980752;28;89722;-31
2022/12/06 06:38:22;;;;;;;7.40;3.70;;;4.20;99.90;;;;;;4980320;28;90214;-30
2022/12/06 06:40:47;;;;;;;7.15;4.10;;;4.20;99.90;;;;;;4980679;28;89880;-30
2022/12/06 06:43:19;;;;;;;7.40;4.22;;;4.20;99.90;;;;;;4980345;28;89319;-33
2022/12/06 06:45:52;;;;;;;7.03;4.53;;;4.30;99.90;;;;;;4979685;28;89518;-33
2022/12/06 06:48:18;;;;;;;7.75;4.50;;;4.20;99.90;;;;;;4980962;28;89930;-31
2022/12/06 06:50:43;;;;;;;4.85;3.80;;;4.30;99.90;;;;;;4980229;28;90090;-31
2022/12/06 06:53:09;;;;;;;5.88;3.10;;;4.30;99.90;;;;;;4980517;28;89677;-31
2022/12/06 06:55:35;;;;;;;7.68;4.18;;;4.20;99.90;;;;;;4979995;28;89055;-30
2022/12/06 06:58:01;;;;;;;5.22;3.60;;;4.20;99.90;;;;;;4980542;28;90186;-33
2022/12/06 07:00:27;;;;;;;11.18;4.88;;;4.20;99.90;;;;;;4980658;28;89949;-31
2022/12/06 07:02:52;;;;;;;5.65;3.95;;;4.20;99.90;;;;;;4977549;28;89484;-34
2022/12/06 07:05:18;;;;;;;8.77;4.15;;;4.20;99.90;;;;;;4978163;28;88653;-31
2022/12/06 07:07:45;;;;;;;3.65;3.35;;;4.20;99.90;;;;;;4977620;28;90128;-32
2022/12/06 07:10:11;;;;;;;7.57;3.90;;;4.10;99.90;;;;;;4978100;28;90665;-33
2022/12/06 07:12:37;;;;;;;7.10;4.93;;;4.10;99.90;;;;;;4978452;28;89079;-30
2022/12/06 07:15:03;;;;;;;5.03;3.50;;;4.10;99.90;;;;;;4977602;28;88499;-32
2022/12/06 07:17:29;;;;;;;5.70;3.53;;;4.10;99.90;;;;;;4976218;28;90179;-32
2022/12/06 07:19:55;;;;;;;3.95;3.60;;;4.10;99.90;;;;;;4977511;28;90534;-31
2022/12/06 07:22:20;;;;;;;7.50;4.85;;;4.00;99.90;;;;;;4977221;28;90487;-33
2022/12/06 07:24:46;;;;;;;10.20;5.20;;;4.00;99.90;;;;;;4978395;28;88537;-31
2022/12/06 07:27:12;;;;;;;8.75;4.40;;;4.00;99.90;;;;;;4965485;28;89355;-30
2022/12/06 07:29:37;;;;;;;5.35;4.05;;;4.00;99.90;;;;;;4976505;28;89513;-32
2022/12/06 07:32:03;;;;;;;8.25;5.28;;;3.90;99.90;;;;;;4977015;28;89707;-33
2022/12/06 07:34:29;;;;;;;12.43;4.38;;;3.90;99.90;;;;;;4978031;28;89575;-29
2022/12/06 07:36:55;;;;;;;6.82;4.32;;;3.90;99.90;;;;;;4977630;28;90224;-31
2022/12/06 07:39:20;;;;;;;4.53;4.10;;;3.90;99.90;;;;;;4977504;28;90118;-33
2022/12/06 07:47:15;;;;;;;4.03;3.70;;;3.70;99.90;;;;;;4977732;28;90341;-31
2022/12/06 07:49:40;;;;;;;9.40;5.30;;;3.60;99.90;;;;;;4977406;28;89446;-30
2022/12/06 07:52:06;;;;;;;5.47;3.55;;;3.60;99.90;;;;;;4977145;28;90405;-34
2022/12/06 07:54:31;;;;;;;6.47;3.85;;;3.50;99.90;;;;;;4977578;28;89934;-32
2022/12/06 07:56:57;;;;;;;13.88;5.18;;;3.50;99.90;;;;;;4976288;28;90301;-33
2022/12/06 07:59:24;;;;;;;8.15;4.80;;;3.40;99.90;;;;;;4977795;28;89819;-30
2022/12/06 08:01:51;;;;;;;6.80;4.47;;;3.40;99.90;;;;;;4978836;28;90361;-30
2022/12/06 08:04:17;;;;;;;9.73;4.60;;;3.30;99.90;;;;;;4986894;28;88825;-33
2022/12/06 08:06:43;;;;;;;7.22;5.22;;;3.30;99.90;;;;;;4980799;28;89863;-29
2022/12/06 08:09:09;;;;;;;8.40;4.50;;;3.30;99.90;;;;;;4978405;28;90509;-33
2022/12/06 08:11:35;;;;;;;9.98;4.30;;;3.20;99.90;;;;;;4978158;28;90318;-30
2022/12/06 08:14:02;;;;;;;6.85;4.60;;;3.20;99.90;;;;;;4977809;28;89288;-32
2022/12/06 08:16:28;;;;;;;5.65;4.78;;;3.10;99.90;;;;;;4977779;28;90619;-32
2022/12/06 08:18:54;;;;;;;8.85;4.55;;;3.10;99.90;;;;;;4977268;28;89519;-31
2022/12/06 08:21:20;;;;;;;9.32;4.95;;;3.10;99.90;;;;;;4977064;28;89794;-31
2022/12/06 08:23:45;;;;;;;7.72;4.78;;;3.00;99.90;;;;;;4976133;28;90576;-32
2022/12/06 08:26:14;;;;;;;14.75;4.65;;;3.00;99.90;;;;;;4974284;28;90314;-31
2022/12/06 08:28:41;;;;;;;;;;;3.00;99.90;;;;;;4968072;28;90064;-30
2022/12/06 08:31:16;;;;;;;4.53;4.07;;;2.90;99.90;;;;;;4978197;28;88875;-32
2022/12/06 08:33:42;;;;;;;4.35;3.72;;;2.90;99.90;;;;;;4977431;28;90120;-30
2022/12/06 08:36:10;;;;;;;5.97;4.18;;;2.90;99.90;;;;;;4977421;28;90181;-32
2022/12/06 08:38:37;;;;;;;5.47;3.92;;;2.90;99.90;;;;;;4976694;28;90842;-33
2022/12/06 08:41:04;;;;;;;6.22;3.97;;;2.90;99.90;;;;;;4978716;28;89470;-31
2022/12/06 08:43:30;;;;;;;7.78;4.85;;;3.00;99.90;;;;;;4977048;28;88302;-33
2022/12/06 08:45:55;;;;;;;5.18;4.68;;;3.10;99.90;;;;;;4976574;28;89863;-31
2022/12/06 08:48:21;;;;;;;5.38;4.57;;;3.10;99.90;;;;;;4975036;28;90744;-31
2022/12/06 08:50:47;;;;;;;10.73;4.57;;;3.20;99.90;;;;;;4977685;28;89381;-32
2022/12/06 08:53:12;;;;;;;13.20;5.18;;;3.20;99.90;;;;;;4977235;28;89682;-34
2022/12/06 08:55:38;;;;;;;7.82;4.50;;;3.30;99.90;;;;;;4977014;28;90618;-30
2022/12/06 08:58:03;;;;;;;6.47;5.10;;;3.40;99.90;;;;;;4975464;28;91401;-30
2022/12/06 09:00:29;;;;;;;9.10;5.22;;;3.40;99.90;;;;;;4976665;28;90388;-29
2022/12/06 09:02:55;;;;;;;6.78;5.50;;;3.50;99.90;;;;;;4978380;28;88855;-32
2022/12/06 09:05:20;;;;;;;9.43;5.22;;;3.60;99.90;;;;;;4981145;28;89059;-33
2022/12/06 09:07:46;;;;;;;6.28;5.20;;;3.70;99.90;;;;;;4981885;28;91019;-30
2022/12/06 09:10:11;;;;;;;7.68;5.20;;;3.80;99.90;;;;;;4984344;28;88392;-32
2022/12/06 09:12:37;;;;;;;5.85;4.43;;;4.00;99.90;;;;;;4984261;28;89382;-32
2022/12/06 09:15:03;;;;;;;8.95;4.88;;;4.20;99.90;;;;;;4989707;28;90067;-30
2022/12/06 09:17:29;;;;;;;5.85;4.50;;;4.40;99.90;;;;;;4982960;28;89930;-31
2022/12/06 09:19:54;;;;;;;6.78;5.10;;;4.50;99.90;;;;;;4983066;28;89533;-32
2022/12/06 09:22:20;;;;;;;8.35;4.63;;;4.70;99.90;;;;;;4986917;22;89949;-33
2022/12/06 09:24:46;;;;;;;8.40;4.47;;;4.90;99.90;;;;;;4945200;28;90378;-30
2022/12/06 09:27:11;;;;;;;4.82;3.85;;;5.10;99.90;;;;;;4933341;28;89782;-31
2022/12/06 09:29:37;;;;;;;6.43;4.97;;;5.30;99.90;;;;;;4938967;28;90072;-32
2022/12/06 09:32:03;;;;;;;7.78;4.35;;;5.30;99.90;;;;;;4940036;28;88811;-29
2022/12/06 09:34:29;;;;;;;15.52;5.82;;;5.30;99.90;;;;;;4939850;28;90085;-32
2022/12/06 09:37:01;;;;;;;8.07;4.88;;;5.30;99.90;;;;;;4940345;28;90034;-31
2022/12/06 09:39:35;;;;;;;9.68;5.18;;;5.10;99.90;;;;;;4940064;28;89859;-32
2022/12/06 09:42:25;;;;;;;8.65;4.20;;;4.90;99.90;;;;;;4939806;28;90004;-35
2022/12/06 09:45:12;;;;;;;9.65;4.80;;;4.90;99.90;;;;;;4940618;28;90176;-30
2022/12/06 09:47:58;;;;;;;5.50;4.40;;;4.90;99.90;;;;;;4938955;28;90752;-33
2022/12/06 09:50:42;;;;;;;8.68;4.05;;;4.90;99.90;;;;;;4940668;28;90366;-33
2022/12/06 09:53:40;;;;;;;9.82;4.95;;;4.90;99.90;;;;;;4942028;28;88907;-32
2022/12/06 09:56:20;;;;;;;4.50;3.85;;;5.00;99.90;;;;;;4940928;28;90797;-30
2022/12/06 09:59:06;;;;;;;6.68;4.60;;;5.10;99.90;;;;;;4940853;28;90252;-30
2022/12/06 10:01:56;;;;;;;4.72;3.75;;;5.10;99.90;;;;;;4944572;28;89583;-31
2022/12/06 10:04:40;;;;;;;10.18;3.80;;;5.00;99.90;;;;;;4941075;28;89820;-31
2022/12/06 10:07:29;;;;;;;5.60;4.15;;;5.00;99.90;;;;;;4939278;28;90439;-30
2022/12/06 10:10:03;;;;;;;8.00;4.03;;;5.00;99.90;;;;;;4939934;28;89845;-33
2022/12/06 10:12:47;;;;;;;8.98;4.40;;;4.90;99.90;;;;;;4939843;28;89152;-32
2022/12/06 10:15:41;;;;;;;4.85;4.35;;;5.00;99.90;;;;;;4939466;28;89906;-33
2022/12/06 10:18:30;;;;;;;8.18;5.20;;;5.00;99.90;;;;;;4939950;28;90370;-31
2022/12/06 10:21:10;;;;;;;5.22;4.72;;;5.10;99.90;;;;;;4937925;28;89212;-31
2022/12/06 10:24:17;;;;;;;9.40;5.45;;;5.20;99.90;;;;;;4938797;28;90662;-33
2022/12/06 10:26:48;;;;;;;6.63;4.57;;;5.40;99.90;;;;;;4922397;28;89111;-33
2022/12/06 10:29:18;;;;;;;8.48;4.45;;;5.50;99.90;;;;;;4934959;28;90102;-30
2022/12/06 10:31:59;;;;;;;5.63;4.40;;;5.60;99.90;;;;;;4939955;28;89324;-31
2022/12/06 10:34:50;;;;;;;3.65;3.20;;;5.60;99.90;;;;;;4939684;28;89208;-32
2022/12/06 10:37:45;;;;;;;5.82;4.78;;;5.70;99.90;;;;;;4940044;28;88779;-32
2022/12/06 10:40:23;;;;;;;4.32;3.95;;;5.80;99.90;;;;;;4940004;28;89924;-30
2022/12/06 10:42:56;;;;;;;5.65;4.53;;;5.80;99.90;;;;;;4939315;28;90477;-32
2022/12/06 10:48:45;;;;;;;5.38;3.92;;;5.90;99.90;;;;;;4939278;28;89842;-31
2022/12/06 10:51:16;;;;;;;41.17;9.48;;;6.00;99.90;;;;;;4938828;28;88968;-32
2022/12/06 10:53:51;;;;;;;9.63;4.20;;;6.00;99.90;;;;;;4938885;28;89707;-31
2022/12/06 10:56:23;;;;;;;4.13;3.60;;;5.90;99.90;;;;;;4939940;28;90130;-33
2022/12/06 10:59:01;;;;;;;5.88;3.80;;;5.90;99.90;;;;;;4939768;28;88014;-30
2022/12/06 11:01:40;;;;;;;;;;;5.90;99.90;;;;;;4939164;28;90251;-33
2022/12/06 11:04:33;;;;;;;11.10;4.15;;;6.00;99.90;;;;;;4940202;28;89488;-33
2022/12/06 11:07:14;;;;;;;5.53;3.58;;;6.20;99.90;;;;;;4938996;28;89719;-32
2022/12/06 11:09:47;;;;;;;6.70;3.28;;;6.30;99.90;;;;;;4939600;28;90263;-32
2022/12/06 11:12:34;;;;;;;5.57;4.28;;;6.40;99.90;;;;;;4938631;28;90254;-32
2022/12/06 11:15:18;;;;;;;4.00;2.90;;;6.40;99.90;;;;;;4939785;28;89243;-31
2022/12/06 11:17:49;;;;;;;3.88;3.33;;;6.50;99.90;;;;;;4939501;28;89175;-31
2022/12/06 11:20:27;;;;;;;5.35;3.40;;;6.50;99.90;;;;;;4939613;28;87847;-32
2022/12/06 11:23:05;;;;;;;6.45;4.15;;;6.70;99.90;;;;;;4938776;28;91561;-32
2022/12/06 11:25:45;;;;;;;6.97;3.20;;;6.80;99.90;;;;;;4940367;28;89971;-33
2022/12/06 11:28:24;;;;;;;3.78;3.33;;;6.90;99.90;;;;;;4925170;28;88563;-31
2022/12/06 11:30:52;;;;;;;3.72;3.15;;;7.10;99.90;;;;;;4938829;28;89750;-33
2022/12/06 11:33:20;;;;;;;7.13;3.63;;;7.20;99.90;;;;;;4932045;28;91217;-33
2022/12/06 11:35:46;;;;;;;7.03;3.10;;;7.30;99.90;;;;;;4934891;28;90112;-32
2022/12/06 11:38:14;;;;;;;5.50;3.30;;;7.30;99.90;;;;;;4921450;28;90191;-31
2022/12/06 11:40:49;;;;;;;3.53;3.00;;;7.50;99.90;;;;;;4921868;28;88461;-32
2022/12/06 11:43:19;;;;;;;7.22;2.92;;;7.50;99.90;;;;;;4938132;28;90481;-31
2022/12/06 11:45:47;;;;;;;7.53;3.30;;;7.50;99.90;;;;;;4925891;28;89468;-33
2022/12/06 11:48:17;;;;;;;5.18;3.40;;;7.40;99.90;;;;;;4937517;28;88861;-34
2022/12/06 11:50:44;;;;;;;5.22;2.90;;;7.20;99.90;;;;;;4938201;28;89804;-34
2022/12/06 11:53:34;;;;;;;2.58;2.38;;;7.10;99.90;;;;;;4939503;28;90320;-33
2022/12/06 11:56:14;;;;;;;4.47;3.05;;;6.90;99.90;;;;;;4937185;28;90147;-32
2022/12/06 11:58:49;;;;;;;4.47;2.40;;;6.80;99.90;;;;;;4936498;28;89702;-34
2022/12/06 12:01:15;;;;;;;7.05;3.25;;;6.70;99.90;;;;;;4938644;28;90189;-33
2022/12/06 12:03:43;;;;;;;5.43;3.63;;;6.70;99.90;;;;;;4937932;28;90267;-33
2022/12/06 12:06:11;;;;;;;6.22;2.83;;;6.70;99.90;;;;;;4937566;28;89282;-34
2022/12/06 12:08:37;;;;;;;4.55;3.53;;;6.70;99.90;;;;;;4933043;28;89305;-33
2022/12/06 12:11:03;;;;;;;7.03;3.58;;;6.70;99.90;;;;;;4919995;28;88994;-32
2022/12/06 12:13:45;;;;;;;5.32;3.47;;;6.60;99.90;;;;;;4937363;28;91064;-33
2022/12/06 12:16:21;;;;;;;6.20;4.05;;;6.60;99.90;;;;;;4939140;28;89131;-33
2022/12/06 12:18:50;;;;;;;4.60;2.80;;;6.70;99.90;;;;;;4937801;28;89981;-31
2022/12/06 12:21:26;;;;;;;7.60;4.15;;;6.70;99.90;;;;;;4938288;28;88578;-33
2022/12/06 12:23:52;;;;;;;45.75;8.93;;;6.70;99.90;;;;;;4937685;28;90568;-32
2022/12/06 12:26:20;;;;;;;7.63;3.22;;;6.70;99.90;;;;;;4925319;28;91340;-32
2022/12/06 12:29:07;;;;;;;4.93;3.10;;;6.70;99.90;;;;;;4926619;28;90880;-32
2022/12/06 12:31:55;;;;;;;6.35;3.60;;;6.70;99.90;;;;;;4935214;28;89175;-34
2022/12/06 12:34:28;;;;;;;3.17;2.85;;;6.70;99.90;;;;;;4921651;28;89677;-33
2022/12/06 12:36:57;;;;;;;15.73;4.45;;;6.70;99.90;;;;;;4929814;28;90053;-31
2022/12/06 12:39:30;;;;;;;4.22;3.15;;;6.60;99.90;;;;;;4939530;28;90309;-31
2022/12/06 12:41:56;;;;;;;27.42;7.57;;;6.50;99.90;;;;;;4937830;28;89311;-33
2022/12/06 12:44:26;;;;;;;5.68;3.33;;;6.50;99.90;;;;;;4941700;28;90562;-32
2022/12/06 12:47:01;;;;;;;5.22;2.95;;;6.50;99.90;;;;;;4933548;28;89610;-31
2022/12/06 12:49:27;;;;;;;8.52;3.03;;;6.50;99.90;;;;;;4928364;28;89462;-34
2022/12/06 12:51:53;;;;;;;3.63;2.47;;;6.40;99.90;;;;;;4941299;28;89038;-31
2022/12/06 12:54:39;;;;;;;3.45;2.50;;;6.40;99.90;;;;;;4942563;28;90266;-31
2022/12/06 12:57:12;;;;;;;3.17;2.83;;;6.40;99.90;;;;;;4940191;28;89257;-32
2022/12/06 12:59:42;;;;;;;4.68;4.13;;;6.40;99.90;;;;;;4940600;28;91236;-32
2022/12/06 13:02:21;;;;;;;10.23;3.83;;;6.40;99.90;;;;;;4940580;28;88067;-32
2022/12/06 13:04:55;;;;;;;2.85;2.50;;;6.40;99.90;;;;;;4927802;28;89931;-31
2022/12/06 13:07:34;;;;;;;4.55;2.50;;;6.40;99.90;;;;;;4940433;28;89828;-30
2022/12/06 13:10:24;;;;;;;7.18;3.13;;;6.40;99.90;;;;;;4941211;28;89691;-32
2022/12/06 13:13:12;;;;;;;13.90;2.58;;;6.30;99.90;;;;;;4928172;28;88460;-30
2022/12/06 13:15:46;;;;;;;2.87;2.47;;;6.40;99.90;;;;;;4940614;28;90045;-33
2022/12/06 13:18:23;;;;;;;5.43;2.22;;;6.40;99.90;;;;;;4939955;28;90234;-33
2022/12/06 13:20:51;;;;;;;17.70;5.70;;;6.30;99.90;;;;;;4939883;28;90273;-33
2022/12/06 13:23:19;;;;;;;2.77;2.10;;;6.30;99.90;;;;;;4940886;28;88963;-32
2022/12/06 13:26:00;;;;;;;5.40;2.25;;;6.30;99.90;;;;;;4939877;28;90213;-34
2022/12/06 13:28:32;;;;;;;3.55;2.45;;;6.20;99.90;;;;;;4928594;28;90130;-31
2022/12/06 13:31:10;;;;;;;31.75;7.47;;;6.20;99.90;;;;;;4939657;28;88986;-31
2022/12/06 13:33:55;;;;;;;3.45;2.47;;;6.10;99.90;;;;;;4939940;28;88573;-32
2022/12/06 13:36:23;;;;;;;4.97;2.42;;;6.10;99.90;;;;;;4939635;28;90328;-33
2022/12/06 13:38:49;;;;;;;4.38;3.30;;;6.10;99.90;;;;;;4940205;28;89605;-32
2022/12/06 13:42:16;;;;;;;3.80;2.22;;;6.10;99.90;;;;;;4939744;28;89851;-31
2022/12/06 13:44:43;;;;;;;5.38;3.35;;;6.10;99.90;;;;;;4939650;28;90913;-33